Aviation Digital Data Service (ADDS)

Output produced by METARs form (2116 UTC 09 December 2016)
found at http://www.aviationweather.gov/adds/metars/
 
KLNS 092053Z 29019G25KT 10SM CLR 01/M08 A3024 RMK AO2 PK WND 30027/2014 SLP246 T00111078 53009
KLNS 091953Z 29019G32KT 10SM SCT049 02/M08 A3023 RMK AO2 PK WND 29032/1930 SLP241 T00171078
KLNS 091853Z 29021G28KT 10SM OVC047 02/M08 A3022 RMK AO2 PK WND 28028/1843 SLP236 T00221078
KLNS 091753Z 31021G28KT 10SM BKN044 02/M07 A3022 RMK AO2 PK WND 30028/1748 SLP236 T00221072 10028 21028 58001
KLNS 091653Z 29018G25KT 10SM OVC042 02/M07 A3022 RMK AO2 PK WND 30029/1607 SLP238 T00171067
KLNS 091553Z 31020G29KT 10SM BKN041 01/M07 A3023 RMK AO2 PK WND 29029/1549 SLP241 T00111072
KLNS 091453Z 31019G28KT 10SM FEW037 01/M07 A3022 RMK AO2 PK WND 30028/1449 SLP238 T00061067 53011
KLNS 091353Z 29016KT 10SM CLR M01/M07 A3021 RMK AO2 SLP234 T10061067
KLNS 091253Z 28012KT 10SM CLR M03/M07 A3020 RMK AO2 SLP231 T10281072
KLNS 091153Z 28014KT 10SM FEW070 M02/M08 A3019 RMK AO2 SLP226 T10221078 11017 21028 53008
KLNS 091053Z 27010KT 10SM CLR M03/M08 A3019 RMK AO2 SLP226 T10281078
KLNS 090953Z AUTO 28016KT 10SM CLR M02/M08 A3015 RMK AO2 SLP215 T10221083
KLNS 090853Z AUTO 27012KT 10SM BKN043 M02/M08 A3016 RMK AO2 SLP218 T10171083 51014
KLNS 090753Z AUTO 28013KT 10SM FEW044 M02/M08 A3015 RMK AO2 SLP214 T10221083
KLNS 090653Z AUTO 27010KT 10SM CLR M03/M08 A3013 RMK AO2 SLP208 T10281083
KLNS 090553Z AUTO 26009KT 10SM BKN048 M02/M08 A3012 RMK AO2 SLP203 T10221083 10006 21028 51005
KLNS 090453Z AUTO 28010KT 10SM FEW049 M02/M08 A3012 RMK AO2 SLP203 T10171083 400671028
KLNS 090353Z AUTO 27007KT 10SM CLR M03/M08 A3012 RMK AO2 SLP202 T10281083
KLNS 090253Z 29012KT 10SM CLR M02/M08 A3010 RMK AO2 SLP198 T10171083 50012
KLNS 090153Z 30013KT 10SM FEW055 M01/M09 A3011 RMK AO2 PK WND 29030/0100 SLP200 T10111089
KLNS 090053Z 30017G25KT 10SM BKN055 01/M08 A3009 RMK AO2 PK WND 31026/0043 SLP192 T00061083
KLNS 082353Z 31012KT 10SM CLR 01/M08 A3007 RMK AO2 SLP186 T00061078 10067 20006 51032
KLNS 082253Z 31013KT 10SM CLR 02/M07 A3004 RMK AO2 SLP175 T00171067
KLNS 082153Z 30013KT 10SM CLR 03/M07 A3001 RMK AO2 SLP164 T00281072
KLNS 082053Z 29015KT 10SM CLR 05/M06 A2997 RMK AO2 PK WND 29026/2027 SLP153 T00501061 53013
KLNS 081953Z 30015KT 10SM CLR 06/M06 A2995 RMK AO2 PK WND 30029/1855 SLP144 T00561061
KLNS 081853Z 30019G27KT 10SM CLR 06/M06 A2992 RMK AO2 PK WND 30027/1848 SLP135 T00611061
KLNS 081753Z 29013KT 10SM CLR 07/M06 A2993 RMK AO2 PK WND 27026/1736 SLP139 T00671056 10067 21011 56025
KLNS 081653Z 28012KT 10SM BKN110 06/M04 A2995 RMK AO2 SLP144 T00611039
KLNS 081553Z 26013KT 10SM OVC110 06/M03 A2998 RMK AO2 SLP154 T00561033
KLNS 081453Z 27004KT 10SM OVC095 03/M01 A3001 RMK AO2 SLP165 T00331006 58001
KLNS 081353Z 29003KT 9SM OVC100 02/M01 A3001 RMK AO2 SLP165 T00221011
KLNS 081253Z 29003KT 7SM OVC110 00/M01 A3001 RMK AO2 SLP167 T00001011
KLNS 081153Z 00000KT 6SM BR OVC120 M01/M01 A3001 RMK AO2 SLP166 T10111011 10017 21017 56003
KLNS 081053Z 00000KT 6SM BR BKN110 M01/M02 A3001 RMK AO2 SLP166 T10111017
KLNS 080953Z AUTO 00000KT 7SM SCT110 M02/M02 A3001 RMK AO2 SLP166 T10171022